createdAt,value
2023-05-07T00:00:04.820Z,943.31
2023-05-07T00:05:03.392Z,943.33
2023-05-07T00:10:04.586Z,943.16
2023-05-07T00:15:03.288Z,943.16
2023-05-07T00:20:04.673Z,943.23
2023-05-07T00:25:03.393Z,943.06
2023-05-07T00:30:04.535Z,943.14
2023-05-07T00:35:03.265Z,943.20
2023-05-07T00:40:04.552Z,942.94
2023-05-07T00:45:04.387Z,942.82
2023-05-07T00:50:04.667Z,943.10
2023-05-07T00:55:03.161Z,943.08
2023-05-07T01:00:10.222Z,943.06
2023-05-07T01:05:03.230Z,943.25
2023-05-07T01:10:04.620Z,943.18
2023-05-07T01:15:03.273Z,943.45
2023-05-07T01:20:09.972Z,943.47
2023-05-07T01:25:03.399Z,943.39
2023-05-07T01:30:04.524Z,943.21
2023-05-07T01:35:03.333Z,943.12
2023-05-07T01:40:05.855Z,943.08
2023-05-07T01:45:03.346Z,943.00
2023-05-07T01:50:05.202Z,942.88
2023-05-07T01:55:03.403Z,942.84
2023-05-07T02:00:04.529Z,943.00
2023-05-07T02:05:03.280Z,943.06
2023-05-07T02:10:04.619Z,943.12
2023-05-07T02:15:03.294Z,943.10
2023-05-07T02:20:04.683Z,943.06
2023-05-07T02:25:03.499Z,943.12
2023-05-07T02:30:04.416Z,943.29
2023-05-07T02:35:03.254Z,943.37
2023-05-07T02:40:04.703Z,943.37
2023-05-07T02:45:03.331Z,943.33
2023-05-07T02:50:04.597Z,943.33
2023-05-07T02:55:03.378Z,943.29
2023-05-07T03:00:04.665Z,943.25
2023-05-07T03:05:03.186Z,943.14
2023-05-07T03:10:04.487Z,943.02
2023-05-07T03:15:03.616Z,943.04
2023-05-07T03:20:04.659Z,943.08
2023-05-07T03:25:03.166Z,943.12
2023-05-07T03:30:04.433Z,943.14
2023-05-07T03:35:03.195Z,943.16
2023-05-07T03:40:04.467Z,943.14
2023-05-07T03:45:03.323Z,943.16
2023-05-07T03:50:04.451Z,943.21
2023-05-07T03:55:03.458Z,943.12
2023-05-07T04:00:04.425Z,943.08
2023-05-07T04:05:03.296Z,943.08
2023-05-07T04:10:05.018Z,943.10
2023-05-07T04:15:03.317Z,943.02
2023-05-07T04:20:04.219Z,943.02
2023-05-07T04:25:03.368Z,942.92
2023-05-07T04:30:04.494Z,942.90
2023-05-07T04:35:03.250Z,943.06
2023-05-07T04:40:05.455Z,943.14
2023-05-07T04:45:03.267Z,943.12
2023-05-07T04:50:04.893Z,943.21
2023-05-07T04:55:03.381Z,943.23
2023-05-07T05:00:04.287Z,943.25
2023-05-07T05:05:03.263Z,943.31
2023-05-07T05:10:04.420Z,943.31
2023-05-07T05:15:03.248Z,943.29
2023-05-07T05:20:04.583Z,943.14
2023-05-07T05:25:03.107Z,943.16
2023-05-07T05:30:05.489Z,943.18
2023-05-07T05:35:03.253Z,943.20
2023-05-07T05:40:04.413Z,943.23
2023-05-07T05:45:03.264Z,943.27
2023-05-07T05:50:04.758Z,943.37
2023-05-07T05:55:03.351Z,943.31
2023-05-07T06:00:09.609Z,943.33
2023-05-07T06:05:03.246Z,943.37
2023-05-07T06:10:04.333Z,943.47
2023-05-07T06:15:03.262Z,943.47
2023-05-07T06:20:04.693Z,943.39
2023-05-07T06:25:03.197Z,943.37
2023-05-07T06:30:04.367Z,943.43
2023-05-07T06:35:04.262Z,943.43
2023-05-07T06:40:04.481Z,943.43
2023-05-07T06:45:03.306Z,943.39
2023-05-07T06:50:04.518Z,943.35
2023-05-07T06:55:03.387Z,943.25
2023-05-07T07:00:04.326Z,943.12
2023-05-07T07:05:03.281Z,943.08
2023-05-07T07:10:04.506Z,943.08
2023-05-07T07:15:03.267Z,943.04
2023-05-07T07:20:04.489Z,943.02
2023-05-07T07:25:03.339Z,942.96
2023-05-07T07:30:04.359Z,942.90
2023-05-07T07:35:03.256Z,942.92
2023-05-07T07:40:04.379Z,942.84
2023-05-07T07:45:03.268Z,942.70
2023-05-07T07:50:04.550Z,942.74
2023-05-07T07:55:03.416Z,942.78
2023-05-07T08:00:04.319Z,942.76
2023-05-07T08:05:03.193Z,942.76
2023-05-07T08:10:04.451Z,942.72
2023-05-07T08:15:03.286Z,942.65
2023-05-07T08:20:04.581Z,942.57
2023-05-07T08:25:03.349Z,942.57
2023-05-07T08:30:04.439Z,942.53
2023-05-07T08:35:03.268Z,942.53
2023-05-07T08:40:06.036Z,942.65
2023-05-07T08:45:03.255Z,942.70
2023-05-07T08:50:04.575Z,942.72
2023-05-07T08:55:03.347Z,942.84
2023-05-07T09:00:04.374Z,942.90
2023-05-07T09:05:03.161Z,942.94
2023-05-07T09:10:04.470Z,943.02
2023-05-07T09:15:03.332Z,943.10
2023-05-07T09:20:04.463Z,943.18
2023-05-07T09:25:03.468Z,943.21
2023-05-07T09:30:04.371Z,943.33
2023-05-07T09:35:03.204Z,943.41
2023-05-07T09:40:04.396Z,943.47
2023-05-07T09:45:03.301Z,943.59
2023-05-07T09:50:04.560Z,943.61
2023-05-07T09:55:03.457Z,943.65
2023-05-07T10:00:04.617Z,943.68
2023-05-07T10:05:03.190Z,943.74
2023-05-07T10:10:04.343Z,943.80
2023-05-07T10:15:03.241Z,943.86
2023-05-07T10:20:04.669Z,943.94
2023-05-07T10:25:03.428Z,943.98
2023-05-07T10:30:04.551Z,944.02
2023-05-07T10:35:03.167Z,944.00
2023-05-07T10:40:04.430Z,944.02
2023-05-07T10:45:03.338Z,944.02
2023-05-07T10:50:04.437Z,944.02
2023-05-07T10:55:03.327Z,944.08
2023-05-07T11:00:04.340Z,944.13
2023-05-07T11:05:03.192Z,944.15
2023-05-07T11:10:04.444Z,944.17
2023-05-07T11:15:03.388Z,944.29
2023-05-07T11:20:04.580Z,944.35
2023-05-07T11:25:03.328Z,944.33
2023-05-07T11:30:04.639Z,944.39
2023-05-07T11:35:03.408Z,944.49
2023-05-07T11:40:04.418Z,944.57
2023-05-07T11:45:03.269Z,944.61
2023-05-07T11:50:04.477Z,944.55
2023-05-07T11:55:03.302Z,944.67
2023-05-07T12:00:09.620Z,944.67
2023-05-07T12:05:03.251Z,944.59
2023-05-07T12:10:04.579Z,944.55
2023-05-07T12:15:03.384Z,944.57
2023-05-07T12:20:04.525Z,944.57
2023-05-07T12:25:03.446Z,944.57
2023-05-07T12:30:04.530Z,944.59
2023-05-07T12:35:03.228Z,944.57
2023-05-07T12:40:05.477Z,944.61
2023-05-07T12:45:03.545Z,944.65
2023-05-07T12:50:04.573Z,944.67
2023-05-07T12:55:03.404Z,944.70
2023-05-07T13:00:04.626Z,944.84
2023-05-07T13:05:03.365Z,944.94
2023-05-07T13:10:04.355Z,945.02
2023-05-07T13:15:03.225Z,945.04
2023-05-07T13:20:09.706Z,945.00
2023-05-07T13:25:03.332Z,944.98
2023-05-07T13:30:04.561Z,944.96
2023-05-07T13:35:04.210Z,944.88
2023-05-07T13:40:04.512Z,944.82
2023-05-07T13:45:03.219Z,944.72
2023-05-07T13:50:04.515Z,944.67
2023-05-07T13:55:03.357Z,944.65
2023-05-07T14:00:04.602Z,944.61
2023-05-07T14:05:03.426Z,944.53
2023-05-07T14:10:04.328Z,944.43
2023-05-07T14:15:03.258Z,944.37
2023-05-07T14:20:04.535Z,944.25
2023-05-07T14:25:07.063Z,944.27
2023-05-07T14:30:04.639Z,944.27
2023-05-07T14:35:03.172Z,944.29
2023-05-07T14:40:04.322Z,944.25
2023-05-07T14:45:03.224Z,944.19
2023-05-07T14:50:04.668Z,944.15
2023-05-07T14:55:04.353Z,944.06
2023-05-07T15:00:04.657Z,943.96
2023-05-07T15:05:03.249Z,943.92
2023-05-07T15:10:04.411Z,943.92
2023-05-07T15:15:03.365Z,943.84
2023-05-07T15:20:04.425Z,943.76
2023-05-07T15:25:03.324Z,943.70
2023-05-07T15:30:04.525Z,943.65
2023-05-07T15:35:03.424Z,943.61
2023-05-07T15:40:04.521Z,943.49
2023-05-07T15:45:03.279Z,943.41
2023-05-07T15:50:05.500Z,943.43
2023-05-07T15:55:03.403Z,943.33
2023-05-07T16:00:04.772Z,943.27
2023-05-07T16:05:03.275Z,943.20
2023-05-07T16:10:04.445Z,943.12
2023-05-07T16:15:03.300Z,943.08
2023-05-07T16:20:04.405Z,943.16
2023-05-07T16:25:03.305Z,943.18
2023-05-07T16:30:04.604Z,943.06
2023-05-07T16:35:03.286Z,943.04
2023-05-07T16:40:04.364Z,943.06
2023-05-07T16:45:03.294Z,943.00
2023-05-07T16:50:04.456Z,942.92
2023-05-07T16:55:03.390Z,942.88
2023-05-07T17:00:04.715Z,942.98
2023-05-07T17:05:03.566Z,942.94
2023-05-07T17:10:04.340Z,942.86
2023-05-07T17:15:03.212Z,942.76
2023-05-07T17:20:04.622Z,942.66
2023-05-07T17:25:03.271Z,942.53
2023-05-07T17:30:04.587Z,942.51
2023-05-07T17:35:03.387Z,942.51
2023-05-07T17:40:04.334Z,942.45
2023-05-07T17:45:03.230Z,942.45
2023-05-07T17:50:04.456Z,942.39
2023-05-07T17:55:03.335Z,942.27
2023-05-07T18:00:04.718Z,942.27
2023-05-07T18:05:03.516Z,942.27
2023-05-07T18:10:04.687Z,942.33
2023-05-07T18:15:03.216Z,942.29
2023-05-07T18:20:04.528Z,942.21
2023-05-07T18:25:03.369Z,942.17
2023-05-07T18:30:04.563Z,942.17
2023-05-07T18:35:03.343Z,942.25
2023-05-07T18:40:05.569Z,942.25
2023-05-07T18:45:03.167Z,942.21
2023-05-07T18:50:06.244Z,942.13
2023-05-07T18:55:03.421Z,942.13
2023-05-07T19:00:04.511Z,942.15
2023-05-07T19:05:03.410Z,942.06
2023-05-07T19:10:05.842Z,941.92
2023-05-07T19:15:03.267Z,941.82
2023-05-07T19:20:04.481Z,941.74
2023-05-07T19:25:03.274Z,941.63
2023-05-07T19:30:04.583Z,941.53
2023-05-07T19:35:03.206Z,941.55
2023-05-07T19:40:04.487Z,941.61
2023-05-07T19:45:03.348Z,941.64
2023-05-07T19:50:04.544Z,941.66
2023-05-07T19:55:03.287Z,941.66
2023-05-07T20:00:04.499Z,941.68
2023-05-07T20:05:03.352Z,941.72
2023-05-07T20:10:04.534Z,941.72
2023-05-07T20:15:03.222Z,941.82
2023-05-07T20:20:04.483Z,941.90
2023-05-07T20:25:04.489Z,941.90
2023-05-07T20:30:04.498Z,941.98
2023-05-07T20:35:03.157Z,942.00
2023-05-07T20:40:04.652Z,942.00
2023-05-07T20:45:04.055Z,942.11
2023-05-07T20:50:04.566Z,942.19
2023-05-07T20:55:03.267Z,942.11
2023-05-07T21:00:04.664Z,942.11
2023-05-07T21:05:03.098Z,942.10
2023-05-07T21:10:04.438Z,942.08
2023-05-07T21:15:03.254Z,942.00
2023-05-07T21:20:04.502Z,941.98
2023-05-07T21:25:03.333Z,942.00
2023-05-07T21:30:04.531Z,941.92
2023-05-07T21:35:03.281Z,941.90
2023-05-07T21:40:04.652Z,941.92
2023-05-07T21:45:03.321Z,941.86
2023-05-07T21:50:04.387Z,941.86
2023-05-07T21:55:03.311Z,941.88
2023-05-07T22:00:04.666Z,941.94
2023-05-07T22:05:03.370Z,942.00
2023-05-07T22:10:04.608Z,942.13
2023-05-07T22:15:03.348Z,942.17
2023-05-07T22:20:04.509Z,942.33
2023-05-07T22:25:03.305Z,942.10
2023-05-07T22:30:04.506Z,942.13
2023-05-07T22:35:03.401Z,942.25
2023-05-07T22:40:04.509Z,942.53
2023-05-07T22:45:03.223Z,942.88
2023-05-07T22:50:04.412Z,942.92
2023-05-07T22:55:03.378Z,942.92
2023-05-07T23:00:09.572Z,942.76
2023-05-07T23:05:03.393Z,942.72
2023-05-07T23:10:04.772Z,942.70
2023-05-07T23:15:04.400Z,942.80
2023-05-07T23:20:04.666Z,943.02
2023-05-07T23:25:03.533Z,942.84
2023-05-07T23:30:04.793Z,942.59
2023-05-07T23:35:03.385Z,942.31
2023-05-07T23:40:04.547Z,942.17
2023-05-07T23:45:03.551Z,942.43
2023-05-07T23:50:04.551Z,942.84
2023-05-07T23:55:03.407Z,942.80
